createdAt,value
2023-09-29T00:01:42.236Z,99.90
2023-09-29T00:06:43.996Z,99.90
2023-09-29T00:11:45.845Z,99.90
2023-09-29T00:16:47.601Z,99.90
2023-09-29T00:21:50.000Z,99.90
2023-09-29T00:26:51.713Z,99.90
2023-09-29T00:31:53.460Z,99.90
2023-09-29T00:36:55.217Z,99.90
2023-09-29T00:41:57.588Z,99.90
2023-09-29T00:46:59.647Z,99.90
2023-09-29T00:52:02.965Z,99.90
2023-09-29T00:57:07.040Z,99.90
2023-09-29T01:02:11.670Z,99.90
2023-09-29T01:07:14.249Z,99.90
2023-09-29T01:12:28.681Z,99.90
2023-09-29T01:17:30.527Z,99.90
2023-09-29T01:22:32.584Z,99.90
2023-09-29T01:27:35.286Z,99.90
2023-09-29T01:32:37.168Z,99.90
2023-09-29T01:37:44.015Z,99.90
2023-09-29T01:42:46.184Z,99.90
2023-09-29T01:47:50.234Z,99.90
2023-09-29T01:52:52.781Z,99.90
2023-09-29T01:57:59.158Z,99.90
2023-09-29T02:03:07.640Z,99.90
2023-09-29T02:08:11.150Z,99.90
2023-09-29T02:13:13.367Z,99.90
2023-09-29T02:18:15.297Z,99.90
2023-09-29T02:23:17.368Z,99.90
2023-09-29T02:28:21.309Z,99.90
2023-09-29T02:33:25.267Z,99.90
2023-09-29T02:38:27.075Z,99.90
2023-09-29T02:43:31.781Z,99.90
2023-09-29T02:48:33.660Z,99.90
2023-09-29T02:53:35.588Z,99.90
2023-09-29T02:58:37.429Z,99.90
2023-09-29T03:03:45.547Z,99.90
2023-09-29T03:08:52.474Z,99.90
2023-09-29T03:13:56.983Z,99.90
2023-09-29T03:18:58.677Z,99.90
2023-09-29T03:24:00.567Z,99.90
2023-09-29T03:29:02.322Z,99.90
2023-09-29T03:34:05.184Z,99.90
2023-09-29T03:39:08.748Z,99.90
2023-09-29T03:44:13.506Z,99.90
2023-09-29T03:49:15.374Z,99.90
2023-09-29T03:54:17.125Z,99.90
2023-09-29T03:59:19.473Z,99.90
2023-09-29T04:04:21.365Z,99.90
2023-09-29T04:09:23.105Z,99.90
2023-09-29T04:14:33.724Z,99.90
2023-09-29T04:19:36.542Z,99.90
2023-09-29T04:24:38.978Z,99.90
2023-09-29T04:29:41.090Z,99.90
2023-09-29T04:34:42.902Z,99.90
2023-09-29T04:39:44.866Z,99.90
2023-09-29T04:44:46.703Z,99.90
2023-09-29T04:49:48.545Z,99.90
2023-09-29T04:54:50.332Z,99.90
2023-09-29T04:59:52.220Z,99.90
2023-09-29T05:04:53.974Z,99.90
2023-09-29T05:09:55.735Z,99.90
2023-09-29T05:14:58.437Z,99.90
2023-09-29T05:20:00.304Z,99.90
2023-09-29T05:25:02.532Z,99.90
2023-09-29T05:30:04.801Z,99.90
2023-09-29T05:35:07.289Z,99.90
2023-09-29T05:40:09.795Z,99.90
2023-09-29T05:45:13.302Z,99.90
2023-09-29T05:50:19.114Z,99.90
2023-09-29T05:55:21.466Z,99.90
2023-09-29T06:00:23.409Z,99.90
2023-09-29T06:05:25.198Z,99.90
2023-09-29T06:10:27.222Z,99.90
2023-09-29T06:15:29.157Z,99.90
2023-09-29T06:20:30.989Z,99.90
2023-09-29T06:25:34.222Z,99.90
2023-09-29T06:30:36.745Z,99.90
2023-09-29T06:35:38.625Z,99.90
2023-09-29T06:40:40.352Z,96.40
2023-09-29T06:45:59.858Z,91.20
2023-09-29T06:51:03.699Z,85.80
2023-09-29T06:56:05.605Z,86.20
2023-09-29T07:01:08.585Z,81.30
2023-09-29T07:06:10.545Z,78.40
2023-09-29T07:11:12.480Z,77.60
2023-09-29T07:16:14.975Z,79.40
2023-09-29T07:21:16.831Z,81.30
2023-09-29T07:26:18.574Z,80.00
2023-09-29T07:31:20.393Z,76.70
2023-09-29T07:36:22.860Z,78.90
2023-09-29T07:41:24.876Z,74.80
2023-09-29T07:46:26.709Z,71.90
2023-09-29T07:51:28.598Z,70.60
2023-09-29T07:56:31.666Z,72.30
2023-09-29T08:01:33.649Z,71.30
2023-09-29T08:06:36.411Z,70.00
2023-09-29T08:11:38.219Z,70.80
2023-09-29T08:16:40.001Z,70.60
2023-09-29T08:21:41.746Z,69.50
2023-09-29T08:26:43.692Z,68.10
2023-09-29T08:31:45.644Z,66.10
2023-09-29T08:36:47.417Z,68.50
2023-09-29T08:42:02.073Z,70.40
2023-09-29T08:47:04.078Z,70.60
2023-09-29T08:52:07.096Z,70.10
2023-09-29T08:57:09.100Z,63.20
2023-09-29T09:02:11.080Z,60.80
2023-09-29T09:07:14.691Z,61.10
2023-09-29T09:12:18.158Z,58.90
2023-09-29T09:17:20.195Z,56.20
2023-09-29T09:22:38.790Z,60.20
2023-09-29T09:27:50.261Z,68.00
2023-09-29T09:32:52.302Z,72.70
2023-09-29T09:37:54.720Z,74.20
2023-09-29T09:43:04.663Z,68.90
2023-09-29T09:48:11.522Z,65.50
2023-09-29T09:53:15.726Z,59.30
2023-09-29T09:58:18.484Z,57.80
2023-09-29T10:03:21.780Z,58.80
2023-09-29T10:08:32.135Z,65.10
2023-09-29T10:13:38.132Z,69.40
2023-09-29T10:18:40.011Z,71.40
2023-09-29T10:23:51.658Z,73.40
2023-09-29T10:29:02.635Z,75.70
2023-09-29T10:34:04.478Z,76.20
2023-09-29T10:39:06.255Z,75.80
2023-09-29T10:44:08.561Z,77.70
2023-09-29T10:49:10.482Z,76.00
2023-09-29T10:54:12.478Z,77.50
2023-09-29T10:59:14.346Z,76.00
2023-09-29T11:04:16.451Z,76.70
2023-09-29T11:09:22.140Z,77.30
2023-09-29T11:14:26.356Z,76.70
2023-09-29T11:19:32.067Z,76.20
2023-09-29T11:24:41.508Z,76.30
2023-09-29T11:29:45.173Z,76.60
2023-09-29T11:34:47.734Z,75.50
2023-09-29T11:39:49.689Z,77.10
2023-09-29T11:44:52.073Z,76.80
2023-09-29T11:49:53.793Z,78.10
2023-09-29T11:54:55.571Z,78.70
2023-09-29T11:59:57.342Z,79.10
2023-09-29T12:04:59.082Z,80.00
2023-09-29T12:10:01.198Z,79.00
2023-09-29T12:15:03.430Z,79.40
2023-09-29T12:20:09.008Z,79.30
2023-09-29T12:25:15.584Z,79.50
2023-09-29T12:30:18.985Z,80.40
2023-09-29T12:35:20.813Z,81.40
2023-09-29T12:40:23.008Z,81.00
2023-09-29T12:45:24.898Z,78.50
2023-09-29T12:50:27.036Z,81.10
2023-09-29T12:55:28.808Z,81.10
2023-09-29T13:00:30.756Z,81.50
2023-09-29T13:05:38.990Z,84.60
2023-09-29T13:10:41.088Z,87.20
2023-09-29T13:15:43.331Z,86.40
2023-09-29T13:20:46.411Z,88.20
2023-09-29T13:25:48.184Z,88.00
2023-09-29T13:30:54.778Z,88.00
2023-09-29T13:35:57.005Z,90.30
2023-09-29T13:40:58.888Z,91.20
2023-09-29T13:46:00.667Z,91.10
2023-09-29T13:51:07.580Z,93.00
2023-09-29T13:56:13.147Z,93.90
2023-09-29T14:01:18.917Z,92.00
2023-09-29T14:06:20.713Z,93.80
2023-09-29T14:11:22.527Z,91.20
2023-09-29T14:16:24.317Z,93.70
2023-09-29T14:21:26.278Z,95.10
2023-09-29T14:26:28.517Z,93.70
2023-09-29T14:31:30.436Z,92.90
2023-09-29T14:36:32.250Z,95.00
2023-09-29T14:41:34.020Z,96.80
2023-09-29T14:46:35.851Z,99.90
2023-09-29T14:51:38.117Z,99.90
2023-09-29T14:56:39.897Z,99.90
2023-09-29T15:01:41.649Z,99.90
2023-09-29T15:06:43.471Z,99.90
2023-09-29T15:11:45.673Z,99.90
2023-09-29T15:16:48.002Z,99.90
2023-09-29T15:21:49.900Z,99.90
2023-09-29T15:26:51.692Z,99.90
2023-09-29T15:31:53.708Z,99.90
2023-09-29T15:36:55.477Z,99.90
2023-09-29T15:41:57.283Z,99.90
2023-09-29T15:47:00.012Z,99.90
2023-09-29T15:52:05.094Z,99.90
2023-09-29T15:57:06.855Z,99.90
2023-09-29T16:02:25.723Z,99.90
2023-09-29T16:07:28.233Z,99.90
2023-09-29T16:12:30.479Z,99.90
2023-09-29T16:17:34.309Z,99.90
2023-09-29T16:22:36.284Z,99.90
2023-09-29T16:27:38.124Z,99.90
2023-09-29T16:32:39.986Z,99.90
2023-09-29T16:37:41.798Z,99.90
2023-09-29T16:42:43.696Z,99.90
2023-09-29T16:47:45.642Z,99.90
2023-09-29T16:52:47.543Z,99.90
2023-09-29T16:57:49.434Z,99.90
2023-09-29T17:02:51.274Z,99.90
2023-09-29T17:07:54.938Z,99.90
2023-09-29T17:12:56.747Z,99.90
2023-09-29T17:17:58.589Z,99.90
2023-09-29T17:23:00.422Z,99.90
2023-09-29T17:28:02.200Z,99.90
2023-09-29T17:33:04.882Z,99.90
2023-09-29T17:38:07.565Z,99.90
2023-09-29T17:43:09.477Z,99.90
2023-09-29T17:48:22.385Z,99.90
2023-09-29T17:53:32.548Z,99.90
2023-09-29T17:58:34.908Z,99.90
2023-09-29T18:03:36.939Z,99.90
2023-09-29T18:08:38.890Z,99.90
2023-09-29T18:13:40.784Z,99.90
2023-09-29T18:18:42.711Z,99.90
2023-09-29T18:23:44.697Z,99.90
2023-09-29T18:28:47.934Z,99.90
2023-09-29T18:33:49.718Z,99.90
2023-09-29T18:38:51.681Z,99.90
2023-09-29T18:43:55.026Z,99.90
2023-09-29T18:48:59.145Z,99.90
2023-09-29T18:54:01.429Z,99.90
2023-09-29T18:59:05.556Z,99.90
2023-09-29T19:04:07.379Z,99.90
2023-09-29T19:09:09.589Z,99.90
2023-09-29T19:14:12.449Z,99.90
2023-09-29T19:19:14.350Z,99.90
2023-09-29T19:24:16.127Z,99.90
2023-09-29T19:29:17.949Z,99.90
2023-09-29T19:34:19.738Z,99.90
2023-09-29T19:39:21.925Z,99.90
2023-09-29T19:44:23.728Z,99.90
2023-09-29T19:49:25.881Z,99.90
2023-09-29T19:54:28.637Z,99.90
2023-09-29T19:59:30.391Z,99.90
2023-09-29T20:04:32.295Z,99.90
2023-09-29T20:09:34.311Z,99.90
2023-09-29T20:14:36.403Z,99.90
2023-09-29T20:19:38.152Z,99.90
2023-09-29T20:24:40.168Z,99.90
2023-09-29T20:29:42.052Z,99.90
2023-09-29T20:34:43.781Z,99.90
2023-09-29T20:39:45.524Z,99.90
2023-09-29T20:44:47.536Z,99.90
2023-09-29T20:49:49.271Z,99.90
2023-09-29T20:54:50.978Z,99.90
2023-09-29T20:59:53.334Z,99.90
2023-09-29T21:04:55.607Z,99.90
2023-09-29T21:09:57.418Z,99.90
2023-09-29T21:15:00.109Z,99.90
2023-09-29T21:20:01.948Z,99.90
2023-09-29T21:25:03.996Z,99.90
2023-09-29T21:30:11.399Z,99.90
2023-09-29T21:35:14.402Z,99.90
2023-09-29T21:40:18.932Z,99.90
2023-09-29T21:45:20.672Z,99.90
2023-09-29T21:50:22.960Z,99.90
2023-09-29T21:55:24.922Z,99.90
2023-09-29T22:00:26.961Z,99.90
2023-09-29T22:05:28.844Z,99.90
2023-09-29T22:10:32.808Z,99.90
2023-09-29T22:15:34.703Z,99.90
2023-09-29T22:20:39.032Z,99.90
2023-09-29T22:25:41.298Z,99.90
2023-09-29T22:30:43.120Z,99.90
2023-09-29T22:35:45.099Z,99.90
2023-09-29T22:40:46.822Z,99.90
2023-09-29T22:45:48.763Z,99.90
2023-09-29T22:50:50.525Z,99.90
2023-09-29T22:55:58.357Z,99.90
2023-09-29T23:01:00.918Z,99.90
2023-09-29T23:06:03.452Z,99.90
2023-09-29T23:11:06.972Z,99.90
2023-09-29T23:16:10.348Z,99.90
2023-09-29T23:21:12.538Z,99.90
2023-09-29T23:26:14.424Z,99.90
2023-09-29T23:31:16.682Z,99.90
2023-09-29T23:36:20.893Z,99.90
2023-09-29T23:41:23.379Z,99.90
2023-09-29T23:46:26.402Z,99.90
2023-09-29T23:51:28.331Z,99.90
2023-09-29T23:56:30.279Z,99.90
